EGLCEGBB

Guest
Details From EGLC - London City
To EGBB - Birmingham
Flight Number -
Tags generated
Created
Modified
Stats Distance 88 nm / 163 km
Max Altitude 5,200 ft / 1,585 m
Waypoints 3
Social Downloads 10
Likes 0
Share VATSIM

Download

Looking for another format? Having issues loading an existing format? Contact us
Advertisement - Login to hide

Notes

Basic altitude profile: - Ascent Rate: 1000ft/min - Ascent Speed: 300kts - Cruise Altitude: 100000ft - Cruise Speed: 350kts - Descent Rate: 1000ft/min - Descent Speed: 300kts Options: - Use NATs: yes - Use PACOTS: yes - Use low airways: yes - Use high airways: yes

Route

EGLC IPRIL EGBB

ID Type Via Altitude Latitude Longitude Leg Dist Tot Dist Heading (true) Name
O EGLC APT - 0 ft / 0 m 51.50523˚ 0.05518˚ - 0 nm - London City
IPRIL FIX - 5,200 ft / 1,585 m 51.67472˚ -0.22639˚ 14 nm 14 nm 314° / 314° -
O EGBB APT - 0 ft / 0 m 52.45597˚ -1.75038˚ 73 nm 87 nm 310° / 309° Birmingham

Altitude Profile

Advertisement - Login to hide

EGLC

Details ICAO EGLC (LCY)
Name London City
Region United Kingdom
Timezone Europe/London (UTC+0.0)
Stats Elevation 19 ft / 6 m (AMSL)
Location 51.505231° 0.055175°
Runways 1
Magnetic Variation 0.383° W

METAR

EGLC 170620Z AUTO 26006KT 2400 HZ OVC002 01/01 Q1025

Decode

TAF

Not found

Departure Runways

ID Width Length Bearing (true) Bearing (mag) Surface Threshold Offset Overrun Length
09 98 ft / 30 m 4,931 ft / 1,503 m 92.89° 93.27° Concrete 322 ft / 98 m 164 ft / 50 m
27 98 ft / 30 m 4,931 ft / 1,503 m 272.91° 273.29° Concrete 243 ft / 74 m 279 ft / 85 m

EGBB

Details ICAO EGBB (BHX)
Name Birmingham
Region United Kingdom
Timezone Europe/London (UTC+0.0)
Stats Elevation 327 ft / 100 m (AMSL)
Location 52.455966° -1.750378°
Runways 1
Magnetic Variation 1.139° W

METAR

EGBB 170620Z 19005KT 9999 SCT026 01/01 Q1022

Decode

TAF

TAF EGBB 170501Z 1706/1806 VRB02KT 6000 FEW008 BECMG 1706/1709 21010KT PROB30 TEMPO 1706/1711 4000 BR BKN006 TEMPO 1711/1719 3000 RADZ BKN003 BECMG 1716/1719 31006KT 9999 TEMPO 1802/1806 8000 BKN008

Decode

Destination Runways

ID Width Length Bearing (true) Bearing (mag) Surface Threshold Offset Overrun Length
15 151 ft / 46 m 8,477 ft / 2,584 m 145.87° 147.01° Asphalt 925 ft / 282 m 0 ft / 0 m
33 151 ft / 46 m 8,477 ft / 2,584 m 325.89° 327.03° Asphalt 958 ft / 292 m 0 ft / 0 m

Approach Navaids

Runway Type Ident Frequency Range Bearing (true) Bearing (mag) Slope Elevation
15 Localiser IBIR 110.10 MHz 18 nm / 33 km 145.89° 147.03° - 325 ft / 99 m (AMSL)
15 Glidescope IBIR 110.10 MHz 10 nm / 19 km 145.88° 147.02° 3.00° 325 ft / 99 m (AMSL)
15 DME IBIR 110.10 MHz 18 nm / 33 km - - - 349 ft / 106 m (AMSL)
33 Localiser IBM 110.10 MHz 18 nm / 33 km 325.87° 327.00° - 325 ft / 99 m (AMSL)
33 Glidescope IBM 110.10 MHz 10 nm / 19 km 325.88° 327.02° 3.00° 325 ft / 99 m (AMSL)
33 DME IBM 110.10 MHz 18 nm / 33 km - - - 327 ft / 100 m (AMSL)

Popular Alternatives